Mekhanik Pogodin — UBFH6 — position and weather

sailwx.info

Track history (hours):
 
Tides and Currents Weather Stations Pressure Air Temp Water Temp Dewpoint Dewpoint Depression Visibility Wind Speed Wind Dir Waves Ship Positions

Mekhanik Pogodin

Last reported at 2016-Jun-25 09:32 UTC. Time now 2016-Jun-25 17:53 UTC.
Position N 47°04' E 038°46'.

Length 141 m; draft 2.9 m.

Type: Ship (hazmat cat B). MMSI: 273354720.

Date/timePositionNaut miles runAvg speedWind from/ knotsBaromVisibWave heightAir tempDewpointWater temp
2016-Jun-25 09:32N 47°04' E 038°46'5 1.2
2016-Jun-25 05:30N 47°02' E 038°40'6 6.2
2016-Jun-25 04:29N 47°00' E 038°31'7 7.9
2016-Jun-25 03:33N 47°00' E 038°20'8 7.9
2016-Jun-25 02:33N 46°58' E 038°09'8 7.9
2016-Jun-25 01:33N 46°55' E 037°58'25 7.2
2016-Jun-24 22:06N 46°43' E 037°27'50 8.6
2016-Jun-24 16:16N 45°56' E 037°02'23 8.1
2016-Jun-24 13:27N 45°34' E 036°50'7 7.9
2016-Jun-24 12:33N 45°28' E 036°46'8 8.0
2016-Jun-24 11:33N 45°22' E 036°39'7 7.1
2016-Jun-24 10:33N 45°18' E 036°30'8 7.0
2016-Jun-24 09:26N 45°11' E 036°29'  
2016-Jun-22 04:26N 40°55' E 028°57'6 0.6
2016-Jun-21 18:15N 40°52' E 028°50'  
2016-Jun-18 04:29N 39°58' E 025°56'  
Track history (hours):
 
Tides and Currents Weather Stations Pressure Air Temp Water Temp Dewpoint Dewpoint Depression Visibility Wind Speed Wind Dir Waves Ship Positions

Mekhanik Pogodin

Last reported at 2016-Jun-25 09:32 UTC. Time now 2016-Jun-25 17:53 UTC.
Position N 47°04' E 038°46'.

Length 141 m; draft 2.9 m.

Type: Ship (hazmat cat B). MMSI: 273354720.

Date/timePositionNaut miles runAvg speedWind from/ knotsBaromVisibWave heightAir tempDewpointWater temp
2016-Jun-25 09:32N 47°04' E 038°46'5 1.2
2016-Jun-25 05:30N 47°02' E 038°40'6 6.2
2016-Jun-25 04:29N 47°00' E 038°31'7 7.9
2016-Jun-25 03:33N 47°00' E 038°20'8 7.9
2016-Jun-25 02:33N 46°58' E 038°09'8 7.9
2016-Jun-25 01:33N 46°55' E 037°58'25 7.2
2016-Jun-24 22:06N 46°43' E 037°27'50 8.6
2016-Jun-24 16:16N 45°56' E 037°02'23 8.1
2016-Jun-24 13:27N 45°34' E 036°50'7 7.9
2016-Jun-24 12:33N 45°28' E 036°46'8 8.0
2016-Jun-24 11:33N 45°22' E 036°39'7 7.1
2016-Jun-24 10:33N 45°18' E 036°30'8 7.0
2016-Jun-24 09:26N 45°11' E 036°29'  
2016-Jun-22 04:26N 40°55' E 028°57'6 0.6
2016-Jun-21 18:15N 40°52' E 028°50'  
2016-Jun-18 04:29N 39°58' E 025°56'  

Dump ship's entire track history